sensor_id;sensor_type;location;lat;lon;timestamp;P1;durP1;ratioP1;P2;durP2;ratioP2
77091;SDS011;66032;48.252;11.638;2023-03-08T00:02:25;14.95;;;7.75;;
77091;SDS011;66032;48.252;11.638;2023-03-08T00:04:53;13.30;;;7.30;;
77091;SDS011;66032;48.252;11.638;2023-03-08T00:07:21;12.85;;;7.03;;
77091;SDS011;66032;48.252;11.638;2023-03-08T00:09:49;10.63;;;5.63;;
77091;SDS011;66032;48.252;11.638;2023-03-08T00:12:16;15.10;;;8.23;;
77091;SDS011;66032;48.252;11.638;2023-03-08T00:14:45;18.13;;;8.13;;
77091;SDS011;66032;48.252;11.638;2023-03-08T00:17:12;12.43;;;6.97;;
77091;SDS011;66032;48.252;11.638;2023-03-08T00:19:40;14.73;;;7.80;;
77091;SDS011;66032;48.252;11.638;2023-03-08T00:22:08;15.40;;;6.80;;
77091;SDS011;66032;48.252;11.638;2023-03-08T00:24:36;13.93;;;7.53;;
77091;SDS011;66032;48.252;11.638;2023-03-08T00:27:04;15.00;;;6.85;;
77091;SDS011;66032;48.252;11.638;2023-03-08T00:29:31;15.70;;;7.63;;
77091;SDS011;66032;48.252;11.638;2023-03-08T00:31:58;14.68;;;7.65;;
77091;SDS011;66032;48.252;11.638;2023-03-08T00:34:25;14.25;;;7.38;;
77091;SDS011;66032;48.252;11.638;2023-03-08T00:36:52;15.65;;;7.47;;
77091;SDS011;66032;48.252;11.638;2023-03-08T00:39:20;12.20;;;6.63;;
77091;SDS011;66032;48.252;11.638;2023-03-08T00:41:47;14.05;;;6.53;;
77091;SDS011;66032;48.252;11.638;2023-03-08T00:44:14;14.57;;;6.90;;
77091;SDS011;66032;48.252;11.638;2023-03-08T00:46:42;14.88;;;7.22;;
77091;SDS011;66032;48.252;11.638;2023-03-08T00:49:11;13.30;;;6.78;;
77091;SDS011;66032;48.252;11.638;2023-03-08T00:51:39;12.35;;;6.05;;
77091;SDS011;66032;48.252;11.638;2023-03-08T00:54:08;14.48;;;6.95;;
77091;SDS011;66032;48.252;11.638;2023-03-08T00:56:36;9.02;;;5.13;;
77091;SDS011;66032;48.252;11.638;2023-03-08T00:59:03;10.52;;;5.70;;
77091;SDS011;66032;48.252;11.638;2023-03-08T01:01:31;12.25;;;6.40;;
77091;SDS011;66032;48.252;11.638;2023-03-08T01:03:59;14.07;;;6.88;;
77091;SDS011;66032;48.252;11.638;2023-03-08T01:06:28;13.63;;;6.05;;
77091;SDS011;66032;48.252;11.638;2023-03-08T01:08:55;13.32;;;6.40;;
77091;SDS011;66032;48.252;11.638;2023-03-08T01:11:23;11.80;;;6.03;;
77091;SDS011;66032;48.252;11.638;2023-03-08T01:13:52;11.23;;;6.00;;
77091;SDS011;66032;48.252;11.638;2023-03-08T01:16:24;10.35;;;5.47;;
77091;SDS011;66032;48.252;11.638;2023-03-08T01:18:55;14.00;;;6.50;;
77091;SDS011;66032;48.252;11.638;2023-03-08T01:21:23;13.48;;;6.22;;
77091;SDS011;66032;48.252;11.638;2023-03-08T01:23:51;11.23;;;5.07;;
77091;SDS011;66032;48.252;11.638;2023-03-08T01:26:20;11.20;;;5.75;;
77091;SDS011;66032;48.252;11.638;2023-03-08T01:28:49;12.20;;;5.75;;
77091;SDS011;66032;48.252;11.638;2023-03-08T01:31:18;12.77;;;6.00;;
77091;SDS011;66032;48.252;11.638;2023-03-08T01:33:47;14.25;;;6.05;;
77091;SDS011;66032;48.252;11.638;2023-03-08T01:36:19;11.02;;;5.75;;
77091;SDS011;66032;48.252;11.638;2023-03-08T01:38:47;10.52;;;5.05;;
77091;SDS011;66032;48.252;11.638;2023-03-08T01:41:17;17.13;;;7.32;;
77091;SDS011;66032;48.252;11.638;2023-03-08T01:43:52;10.40;;;5.57;;
77091;SDS011;66032;48.252;11.638;2023-03-08T01:46:24;12.75;;;6.57;;
77091;SDS011;66032;48.252;11.638;2023-03-08T01:51:45;14.02;;;5.72;;
77091;SDS011;66032;48.252;11.638;2023-03-08T01:54:25;11.98;;;6.15;;
77091;SDS011;66032;48.252;11.638;2023-03-08T01:56:57;14.90;;;6.28;;
77091;SDS011;66032;48.252;11.638;2023-03-08T01:59:27;12.18;;;6.95;;
77091;SDS011;66032;48.252;11.638;2023-03-08T02:01:58;13.02;;;6.20;;
77091;SDS011;66032;48.252;11.638;2023-03-08T02:04:29;12.50;;;5.75;;
77091;SDS011;66032;48.252;11.638;2023-03-08T02:06:56;13.20;;;6.43;;
77091;SDS011;66032;48.252;11.638;2023-03-08T02:09:25;10.70;;;5.28;;
77091;SDS011;66032;48.252;11.638;2023-03-08T02:11:53;13.38;;;6.30;;
77091;SDS011;66032;48.252;11.638;2023-03-08T02:16:52;11.30;;;5.53;;
77091;SDS011;66032;48.252;11.638;2023-03-08T02:19:21;10.25;;;5.22;;
77091;SDS011;66032;48.252;11.638;2023-03-08T02:21:55;12.30;;;6.30;;
77091;SDS011;66032;48.252;11.638;2023-03-08T02:24:23;12.32;;;5.60;;
77091;SDS011;66032;48.252;11.638;2023-03-08T02:26:51;11.85;;;5.85;;
77091;SDS011;66032;48.252;11.638;2023-03-08T02:29:27;13.98;;;5.97;;
77091;SDS011;66032;48.252;11.638;2023-03-08T02:31:54;11.38;;;5.60;;
77091;SDS011;66032;48.252;11.638;2023-03-08T02:34:21;10.68;;;5.15;;
77091;SDS011;66032;48.252;11.638;2023-03-08T02:36:50;12.23;;;6.00;;
77091;SDS011;66032;48.252;11.638;2023-03-08T02:39:17;12.43;;;6.07;;
77091;SDS011;66032;48.252;11.638;2023-03-08T02:41:45;11.60;;;5.60;;
77091;SDS011;66032;48.252;11.638;2023-03-08T02:44:12;15.15;;;6.07;;
77091;SDS011;66032;48.252;11.638;2023-03-08T02:46:39;11.02;;;5.63;;
77091;SDS011;66032;48.252;11.638;2023-03-08T02:49:07;11.43;;;5.10;;
77091;SDS011;66032;48.252;11.638;2023-03-08T02:51:34;10.38;;;5.43;;
77091;SDS011;66032;48.252;11.638;2023-03-08T02:54:01;12.50;;;5.78;;
77091;SDS011;66032;48.252;11.638;2023-03-08T02:56:29;12.43;;;6.35;;
77091;SDS011;66032;48.252;11.638;2023-03-08T02:58:56;14.63;;;6.65;;
77091;SDS011;66032;48.252;11.638;2023-03-08T03:01:23;12.55;;;6.03;;
77091;SDS011;66032;48.252;11.638;2023-03-08T03:03:52;12.35;;;5.82;;
77091;SDS011;66032;48.252;11.638;2023-03-08T03:06:21;11.45;;;5.68;;
77091;SDS011;66032;48.252;11.638;2023-03-08T03:08:52;13.55;;;6.15;;
77091;SDS011;66032;48.252;11.638;2023-03-08T03:11:20;10.05;;;4.97;;
77091;SDS011;66032;48.252;11.638;2023-03-08T03:13:53;10.63;;;5.22;;
77091;SDS011;66032;48.252;11.638;2023-03-08T03:16:26;11.63;;;5.80;;
77091;SDS011;66032;48.252;11.638;2023-03-08T03:18:54;10.60;;;5.18;;
77091;SDS011;66032;48.252;11.638;2023-03-08T03:21:22;10.73;;;5.50;;
77091;SDS011;66032;48.252;11.638;2023-03-08T03:23:50;12.80;;;6.03;;
77091;SDS011;66032;48.252;11.638;2023-03-08T03:26:21;8.00;;;4.68;;
77091;SDS011;66032;48.252;11.638;2023-03-08T03:28:54;11.60;;;4.95;;
77091;SDS011;66032;48.252;11.638;2023-03-08T03:31:26;12.52;;;5.72;;
77091;SDS011;66032;48.252;11.638;2023-03-08T03:33:54;11.85;;;5.55;;
77091;SDS011;66032;48.252;11.638;2023-03-08T03:36:24;11.20;;;6.10;;
77091;SDS011;66032;48.252;11.638;2023-03-08T03:38:52;11.95;;;5.55;;
77091;SDS011;66032;48.252;11.638;2023-03-08T03:41:21;9.23;;;4.43;;
77091;SDS011;66032;48.252;11.638;2023-03-08T03:43:58;11.30;;;5.28;;
77091;SDS011;66032;48.252;11.638;2023-03-08T03:46:26;13.68;;;6.05;;
77091;SDS011;66032;48.252;11.638;2023-03-08T03:48:56;10.32;;;5.53;;
77091;SDS011;66032;48.252;11.638;2023-03-08T03:51:26;10.52;;;5.13;;
77091;SDS011;66032;48.252;11.638;2023-03-08T03:54:05;8.65;;;4.68;;
77091;SDS011;66032;48.252;11.638;2023-03-08T03:56:34;8.98;;;4.60;;
77091;SDS011;66032;48.252;11.638;2023-03-08T03:59:02;10.27;;;5.07;;
77091;SDS011;66032;48.252;11.638;2023-03-08T04:01:30;13.90;;;5.80;;
77091;SDS011;66032;48.252;11.638;2023-03-08T04:04:04;13.27;;;6.03;;
77091;SDS011;66032;48.252;11.638;2023-03-08T04:06:34;12.63;;;5.90;;
77091;SDS011;66032;48.252;11.638;2023-03-08T04:09:05;11.00;;;5.75;;
77091;SDS011;66032;48.252;11.638;2023-03-08T04:11:37;11.10;;;5.90;;
77091;SDS011;66032;48.252;11.638;2023-03-08T04:14:09;14.73;;;6.00;;
77091;SDS011;66032;48.252;11.638;2023-03-08T04:16:38;12.15;;;5.75;;
77091;SDS011;66032;48.252;11.638;2023-03-08T04:19:12;15.07;;;6.85;;
77091;SDS011;66032;48.252;11.638;2023-03-08T04:21:46;11.40;;;5.65;;
77091;SDS011;66032;48.252;11.638;2023-03-08T04:24:15;9.93;;;4.95;;
77091;SDS011;66032;48.252;11.638;2023-03-08T04:26:47;12.48;;;5.63;;
77091;SDS011;66032;48.252;11.638;2023-03-08T04:29:17;15.65;;;6.57;;
77091;SDS011;66032;48.252;11.638;2023-03-08T04:31:44;11.18;;;4.97;;
77091;SDS011;66032;48.252;11.638;2023-03-08T04:34:15;12.98;;;6.13;;
77091;SDS011;66032;48.252;11.638;2023-03-08T04:36:46;11.35;;;5.57;;
77091;SDS011;66032;48.252;11.638;2023-03-08T04:39:13;11.90;;;6.63;;
77091;SDS011;66032;48.252;11.638;2023-03-08T04:41:41;10.20;;;4.63;;
77091;SDS011;66032;48.252;11.638;2023-03-08T04:44:14;11.57;;;5.13;;
77091;SDS011;66032;48.252;11.638;2023-03-08T04:46:46;15.40;;;6.43;;
77091;SDS011;66032;48.252;11.638;2023-03-08T04:49:20;12.63;;;6.00;;
77091;SDS011;66032;48.252;11.638;2023-03-08T04:51:52;15.25;;;7.20;;
77091;SDS011;66032;48.252;11.638;2023-03-08T04:54:21;15.13;;;7.45;;
77091;SDS011;66032;48.252;11.638;2023-03-08T04:56:55;15.32;;;7.20;;
77091;SDS011;66032;48.252;11.638;2023-03-08T04:59:24;13.57;;;7.00;;
77091;SDS011;66032;48.252;11.638;2023-03-08T05:01:55;17.55;;;7.03;;
77091;SDS011;66032;48.252;11.638;2023-03-08T05:04:22;13.65;;;6.72;;
77091;SDS011;66032;48.252;11.638;2023-03-08T05:06:51;14.02;;;7.03;;
77091;SDS011;66032;48.252;11.638;2023-03-08T05:09:22;14.73;;;7.68;;
77091;SDS011;66032;48.252;11.638;2023-03-08T05:11:51;15.88;;;7.55;;
77091;SDS011;66032;48.252;11.638;2023-03-08T05:14:20;14.15;;;7.57;;
77091;SDS011;66032;48.252;11.638;2023-03-08T05:16:49;15.30;;;6.47;;
77091;SDS011;66032;48.252;11.638;2023-03-08T05:19:16;14.23;;;6.35;;
77091;SDS011;66032;48.252;11.638;2023-03-08T05:21:50;14.40;;;7.05;;
77091;SDS011;66032;48.252;11.638;2023-03-08T05:24:18;8.70;;;4.15;;
77091;SDS011;66032;48.252;11.638;2023-03-08T05:26:47;14.68;;;7.78;;
77091;SDS011;66032;48.252;11.638;2023-03-08T05:29:16;12.45;;;7.03;;
77091;SDS011;66032;48.252;11.638;2023-03-08T05:31:44;14.38;;;6.97;;
77091;SDS011;66032;48.252;11.638;2023-03-08T05:34:13;15.25;;;7.32;;
77091;SDS011;66032;48.252;11.638;2023-03-08T05:36:45;15.55;;;7.75;;
77091;SDS011;66032;48.252;11.638;2023-03-08T05:39:12;16.30;;;7.43;;
77091;SDS011;66032;48.252;11.638;2023-03-08T05:41:47;17.63;;;8.20;;
77091;SDS011;66032;48.252;11.638;2023-03-08T05:44:20;14.85;;;7.47;;
77091;SDS011;66032;48.252;11.638;2023-03-08T05:46:51;15.70;;;7.45;;
77091;SDS011;66032;48.252;11.638;2023-03-08T05:49:20;12.82;;;7.22;;
77091;SDS011;66032;48.252;11.638;2023-03-08T05:51:47;15.18;;;7.15;;
77091;SDS011;66032;48.252;11.638;2023-03-08T05:54:15;17.60;;;8.30;;
77091;SDS011;66032;48.252;11.638;2023-03-08T05:56:46;15.30;;;7.88;;
77091;SDS011;66032;48.252;11.638;2023-03-08T05:59:24;16.52;;;8.18;;
77091;SDS011;66032;48.252;11.638;2023-03-08T06:04:49;18.58;;;8.10;;
77091;SDS011;66032;48.252;11.638;2023-03-08T06:07:20;14.82;;;7.95;;
77091;SDS011;66032;48.252;11.638;2023-03-08T06:09:55;16.13;;;7.88;;
77091;SDS011;66032;48.252;11.638;2023-03-08T06:12:22;17.13;;;7.55;;
77091;SDS011;66032;48.252;11.638;2023-03-08T06:14:53;15.27;;;8.30;;
77091;SDS011;66032;48.252;11.638;2023-03-08T06:17:24;17.85;;;8.68;;
77091;SDS011;66032;48.252;11.638;2023-03-08T06:19:53;17.83;;;8.55;;
77091;SDS011;66032;48.252;11.638;2023-03-08T06:22:34;16.40;;;8.23;;
77091;SDS011;66032;48.252;11.638;2023-03-08T06:25:02;19.55;;;9.30;;
77091;SDS011;66032;48.252;11.638;2023-03-08T06:27:33;19.90;;;8.95;;
77091;SDS011;66032;48.252;11.638;2023-03-08T06:30:06;19.30;;;8.82;;
77091;SDS011;66032;48.252;11.638;2023-03-08T06:32:34;16.10;;;8.15;;
77091;SDS011;66032;48.252;11.638;2023-03-08T06:35:05;18.60;;;9.32;;
77091;SDS011;66032;48.252;11.638;2023-03-08T06:37:36;16.77;;;9.40;;
77091;SDS011;66032;48.252;11.638;2023-03-08T06:40:05;16.92;;;8.80;;
77091;SDS011;66032;48.252;11.638;2023-03-08T06:42:35;18.48;;;8.75;;
77091;SDS011;66032;48.252;11.638;2023-03-08T06:45:11;19.42;;;9.18;;
77091;SDS011;66032;48.252;11.638;2023-03-08T06:47:39;19.45;;;10.15;;
77091;SDS011;66032;48.252;11.638;2023-03-08T06:50:07;17.30;;;9.20;;
77091;SDS011;66032;48.252;11.638;2023-03-08T06:52:38;16.33;;;9.15;;
77091;SDS011;66032;48.252;11.638;2023-03-08T06:55:06;18.27;;;9.05;;
77091;SDS011;66032;48.252;11.638;2023-03-08T06:57:34;19.60;;;9.27;;
77091;SDS011;66032;48.252;11.638;2023-03-08T07:00:05;18.27;;;9.40;;
77091;SDS011;66032;48.252;11.638;2023-03-08T07:02:35;18.73;;;8.98;;
77091;SDS011;66032;48.252;11.638;2023-03-08T07:05:02;21.80;;;9.60;;
77091;SDS011;66032;48.252;11.638;2023-03-08T07:07:29;20.38;;;9.95;;
77091;SDS011;66032;48.252;11.638;2023-03-08T07:09:56;18.02;;;10.05;;
77091;SDS011;66032;48.252;11.638;2023-03-08T07:12:24;18.52;;;10.18;;
77091;SDS011;66032;48.252;11.638;2023-03-08T07:14:51;19.05;;;9.30;;
77091;SDS011;66032;48.252;11.638;2023-03-08T07:17:19;22.10;;;10.05;;
77091;SDS011;66032;48.252;11.638;2023-03-08T07:19:46;19.88;;;10.10;;
77091;SDS011;66032;48.252;11.638;2023-03-08T07:22:13;19.52;;;9.60;;
77091;SDS011;66032;48.252;11.638;2023-03-08T07:24:40;18.42;;;9.60;;
77091;SDS011;66032;48.252;11.638;2023-03-08T07:27:07;17.70;;;9.52;;
77091;SDS011;66032;48.252;11.638;2023-03-08T07:29:35;21.00;;;9.60;;
77091;SDS011;66032;48.252;11.638;2023-03-08T07:32:02;20.02;;;9.77;;
77091;SDS011;66032;48.252;11.638;2023-03-08T07:34:29;20.33;;;10.70;;
77091;SDS011;66032;48.252;11.638;2023-03-08T07:36:57;20.30;;;10.15;;
77091;SDS011;66032;48.252;11.638;2023-03-08T07:39:24;21.52;;;10.60;;
77091;SDS011;66032;48.252;11.638;2023-03-08T07:41:51;20.83;;;10.30;;
77091;SDS011;66032;48.252;11.638;2023-03-08T07:44:19;28.48;;;10.88;;
77091;SDS011;66032;48.252;11.638;2023-03-08T07:46:46;19.20;;;9.60;;
77091;SDS011;66032;48.252;11.638;2023-03-08T07:49:14;20.67;;;10.10;;
77091;SDS011;66032;48.252;11.638;2023-03-08T07:51:41;21.67;;;10.48;;
77091;SDS011;66032;48.252;11.638;2023-03-08T07:54:09;16.10;;;9.68;;
77091;SDS011;66032;48.252;11.638;2023-03-08T07:56:39;21.50;;;10.30;;
77091;SDS011;66032;48.252;11.638;2023-03-08T07:59:06;19.48;;;9.77;;
77091;SDS011;66032;48.252;11.638;2023-03-08T08:01:33;19.15;;;10.73;;
77091;SDS011;66032;48.252;11.638;2023-03-08T08:04:00;20.75;;;10.07;;
77091;SDS011;66032;48.252;11.638;2023-03-08T08:06:28;19.10;;;9.88;;
77091;SDS011;66032;48.252;11.638;2023-03-08T08:08:55;21.45;;;10.52;;
77091;SDS011;66032;48.252;11.638;2023-03-08T08:11:23;16.88;;;9.18;;
77091;SDS011;66032;48.252;11.638;2023-03-08T08:13:50;17.60;;;10.00;;
77091;SDS011;66032;48.252;11.638;2023-03-08T08:16:18;19.65;;;10.73;;
77091;SDS011;66032;48.252;11.638;2023-03-08T08:18:45;18.58;;;10.20;;
77091;SDS011;66032;48.252;11.638;2023-03-08T08:21:13;18.40;;;9.38;;
77091;SDS011;66032;48.252;11.638;2023-03-08T08:23:41;19.58;;;10.68;;
77091;SDS011;66032;48.252;11.638;2023-03-08T08:26:11;17.33;;;9.70;;
77091;SDS011;66032;48.252;11.638;2023-03-08T08:28:41;16.25;;;9.70;;
77091;SDS011;66032;48.252;11.638;2023-03-08T08:31:10;17.38;;;9.52;;
77091;SDS011;66032;48.252;11.638;2023-03-08T08:33:40;18.85;;;10.02;;
77091;SDS011;66032;48.252;11.638;2023-03-08T08:36:10;17.27;;;10.35;;
77091;SDS011;66032;48.252;11.638;2023-03-08T08:38:39;17.40;;;9.75;;
77091;SDS011;66032;48.252;11.638;2023-03-08T08:41:06;20.65;;;10.15;;
77091;SDS011;66032;48.252;11.638;2023-03-08T08:43:34;16.45;;;9.38;;
77091;SDS011;66032;48.252;11.638;2023-03-08T08:46:02;18.55;;;9.55;;
77091;SDS011;66032;48.252;11.638;2023-03-08T08:48:31;18.75;;;8.88;;
77091;SDS011;66032;48.252;11.638;2023-03-08T08:50:59;16.60;;;8.75;;
77091;SDS011;66032;48.252;11.638;2023-03-08T08:53:26;17.83;;;8.98;;
77091;SDS011;66032;48.252;11.638;2023-03-08T08:55:54;16.17;;;9.02;;
77091;SDS011;66032;48.252;11.638;2023-03-08T08:58:21;18.50;;;9.38;;
77091;SDS011;66032;48.252;11.638;2023-03-08T09:00:49;15.23;;;8.95;;
77091;SDS011;66032;48.252;11.638;2023-03-08T09:03:16;16.15;;;8.18;;
77091;SDS011;66032;48.252;11.638;2023-03-08T09:05:43;14.27;;;7.78;;
77091;SDS011;66032;48.252;11.638;2023-03-08T09:08:11;15.80;;;8.75;;
77091;SDS011;66032;48.252;11.638;2023-03-08T09:10:39;15.20;;;8.40;;
77091;SDS011;66032;48.252;11.638;2023-03-08T09:13:07;15.25;;;8.18;;
77091;SDS011;66032;48.252;11.638;2023-03-08T09:15:34;16.58;;;8.82;;
77091;SDS011;66032;48.252;11.638;2023-03-08T09:18:03;13.10;;;7.68;;
77091;SDS011;66032;48.252;11.638;2023-03-08T09:20:30;16.52;;;8.60;;
77091;SDS011;66032;48.252;11.638;2023-03-08T09:22:57;15.25;;;8.68;;
77091;SDS011;66032;48.252;11.638;2023-03-08T09:25:24;15.38;;;8.00;;
77091;SDS011;66032;48.252;11.638;2023-03-08T09:27:52;13.60;;;7.80;;
77091;SDS011;66032;48.252;11.638;2023-03-08T09:30:19;14.18;;;7.85;;
77091;SDS011;66032;48.252;11.638;2023-03-08T09:32:46;13.88;;;8.45;;
77091;SDS011;66032;48.252;11.638;2023-03-08T09:35:13;14.82;;;8.60;;
77091;SDS011;66032;48.252;11.638;2023-03-08T09:37:43;16.48;;;9.27;;
77091;SDS011;66032;48.252;11.638;2023-03-08T09:40:16;18.30;;;9.48;;
77091;SDS011;66032;48.252;11.638;2023-03-08T09:42:45;16.38;;;9.60;;
77091;SDS011;66032;48.252;11.638;2023-03-08T09:47:47;16.88;;;8.90;;
77091;SDS011;66032;48.252;11.638;2023-03-08T09:55:46;17.25;;;8.93;;
77091;SDS011;66032;48.252;11.638;2023-03-08T09:58:27;16.40;;;10.05;;
77091;SDS011;66032;48.252;11.638;2023-03-08T10:01:02;17.65;;;10.45;;
77091;SDS011;66032;48.252;11.638;2023-03-08T10:06:33;23.60;;;10.32;;
77091;SDS011;66032;48.252;11.638;2023-03-08T10:14:25;16.27;;;9.55;;
77091;SDS011;66032;48.252;11.638;2023-03-08T10:16:58;15.98;;;9.23;;
77091;SDS011;66032;48.252;11.638;2023-03-08T10:19:41;17.48;;;10.45;;
77091;SDS011;66032;48.252;11.638;2023-03-08T10:22:34;18.25;;;9.27;;
77091;SDS011;66032;48.252;11.638;2023-03-08T10:27:48;16.58;;;9.35;;
77091;SDS011;66032;48.252;11.638;2023-03-08T10:30:21;15.98;;;9.15;;
77091;SDS011;66032;48.252;11.638;2023-03-08T10:32:53;16.67;;;8.63;;
77091;SDS011;66032;48.252;11.638;2023-03-08T10:35:35;14.25;;;8.50;;
77091;SDS011;66032;48.252;11.638;2023-03-08T10:38:15;17.63;;;10.13;;
77091;SDS011;66032;48.252;11.638;2023-03-08T10:40:43;16.85;;;9.60;;
77091;SDS011;66032;48.252;11.638;2023-03-08T10:43:17;15.27;;;7.78;;
77091;SDS011;66032;48.252;11.638;2023-03-08T10:48:50;21.33;;;8.43;;
77091;SDS011;66032;48.252;11.638;2023-03-08T10:51:19;15.70;;;8.73;;
77091;SDS011;66032;48.252;11.638;2023-03-08T10:54:09;16.92;;;9.07;;
77091;SDS011;66032;48.252;11.638;2023-03-08T10:56:49;13.68;;;8.13;;
77091;SDS011;66032;48.252;11.638;2023-03-08T10:59:33;17.85;;;8.70;;
77091;SDS011;66032;48.252;11.638;2023-03-08T11:04:49;12.88;;;7.03;;
77091;SDS011;66032;48.252;11.638;2023-03-08T11:07:22;12.15;;;6.90;;
77091;SDS011;66032;48.252;11.638;2023-03-08T11:10:02;9.82;;;5.57;;
77091;SDS011;66032;48.252;11.638;2023-03-08T11:12:40;13.00;;;6.45;;
77091;SDS011;66032;48.252;11.638;2023-03-08T11:15:18;11.73;;;6.95;;
77091;SDS011;66032;48.252;11.638;2023-03-08T11:18:34;11.20;;;5.88;;
77091;SDS011;66032;48.252;11.638;2023-03-08T11:20:39;12.65;;;6.80;;
77091;SDS011;66032;48.252;11.638;2023-03-08T11:23:19;13.85;;;6.03;;
77091;SDS011;66032;48.252;11.638;2023-03-08T11:25:58;11.88;;;6.40;;
77091;SDS011;66032;48.252;11.638;2023-03-08T11:29:06;12.95;;;6.82;;
77091;SDS011;66032;48.252;11.638;2023-03-08T11:31:59;9.82;;;5.85;;
77091;SDS011;66032;48.252;11.638;2023-03-08T11:45:57;12.45;;;6.95;;
77091;SDS011;66032;48.252;11.638;2023-03-08T11:54:11;13.55;;;6.65;;
77091;SDS011;66032;48.252;11.638;2023-03-08T11:56:55;11.77;;;6.20;;
77091;SDS011;66032;48.252;11.638;2023-03-08T12:02:01;9.80;;;5.55;;
77091;SDS011;66032;48.252;11.638;2023-03-08T12:04:39;12.00;;;5.88;;
77091;SDS011;66032;48.252;11.638;2023-03-08T12:07:29;10.77;;;6.57;;
77091;SDS011;66032;48.252;11.638;2023-03-08T12:10:20;11.85;;;6.28;;
77091;SDS011;66032;48.252;11.638;2023-03-08T12:13:04;15.52;;;6.95;;
77091;SDS011;66032;48.252;11.638;2023-03-08T12:21:13;11.20;;;6.25;;
77091;SDS011;66032;48.252;11.638;2023-03-08T12:26:54;12.45;;;6.50;;
77091;SDS011;66032;48.252;11.638;2023-03-08T12:29:35;12.82;;;6.60;;
77091;SDS011;66032;48.252;11.638;2023-03-08T12:32:07;12.48;;;6.13;;
77091;SDS011;66032;48.252;11.638;2023-03-08T12:34:38;15.32;;;6.50;;
77091;SDS011;66032;48.252;11.638;2023-03-08T12:37:22;13.05;;;6.22;;
77091;SDS011;66032;48.252;11.638;2023-03-08T12:39:56;14.32;;;6.97;;
77091;SDS011;66032;48.252;11.638;2023-03-08T12:42:33;12.73;;;6.50;;
77091;SDS011;66032;48.252;11.638;2023-03-08T12:45:12;12.57;;;6.20;;
77091;SDS011;66032;48.252;11.638;2023-03-08T12:47:54;13.75;;;6.00;;
77091;SDS011;66032;48.252;11.638;2023-03-08T12:50:22;12.25;;;5.90;;
77091;SDS011;66032;48.252;11.638;2023-03-08T12:52:50;12.68;;;6.40;;
77091;SDS011;66032;48.252;11.638;2023-03-08T12:55:19;8.88;;;5.40;;
77091;SDS011;66032;48.252;11.638;2023-03-08T12:57:58;8.65;;;5.13;;
77091;SDS011;66032;48.252;11.638;2023-03-08T13:00:31;10.88;;;4.95;;
77091;SDS011;66032;48.252;11.638;2023-03-08T13:03:05;10.85;;;5.18;;
77091;SDS011;66032;48.252;11.638;2023-03-08T13:05:52;11.30;;;5.50;;
77091;SDS011;66032;48.252;11.638;2023-03-08T13:13:44;10.38;;;6.05;;
77091;SDS011;66032;48.252;11.638;2023-03-08T13:16:20;8.18;;;4.32;;
77091;SDS011;66032;48.252;11.638;2023-03-08T13:18:49;10.90;;;6.07;;
77091;SDS011;66032;48.252;11.638;2023-03-08T13:21:31;9.43;;;4.28;;
77091;SDS011;66032;48.252;11.638;2023-03-08T13:24:10;8.15;;;4.82;;
77091;SDS011;66032;48.252;11.638;2023-03-08T13:27:14;6.05;;;3.30;;
77091;SDS011;66032;48.252;11.638;2023-03-08T13:29:51;6.05;;;3.05;;
77091;SDS011;66032;48.252;11.638;2023-03-08T13:32:21;6.70;;;2.63;;
77091;SDS011;66032;48.252;11.638;2023-03-08T13:34:57;5.05;;;2.53;;
77091;SDS011;66032;48.252;11.638;2023-03-08T13:37:27;4.00;;;1.98;;
77091;SDS011;66032;48.252;11.638;2023-03-08T13:39:56;3.00;;;1.60;;
77091;SDS011;66032;48.252;11.638;2023-03-08T13:42:26;4.70;;;1.80;;
77091;SDS011;66032;48.252;11.638;2023-03-08T13:45:09;4.63;;;1.90;;
77091;SDS011;66032;48.252;11.638;2023-03-08T13:47:42;5.95;;;1.60;;
77091;SDS011;66032;48.252;11.638;2023-03-08T13:50:15;5.57;;;1.63;;
77091;SDS011;66032;48.252;11.638;2023-03-08T13:52:46;2.60;;;1.50;;
77091;SDS011;66032;48.252;11.638;2023-03-08T13:55:18;3.72;;;1.80;;
77091;SDS011;66032;48.252;11.638;2023-03-08T13:58:00;3.38;;;1.40;;
77091;SDS011;66032;48.252;11.638;2023-03-08T14:00:30;3.35;;;1.73;;
77091;SDS011;66032;48.252;11.638;2023-03-08T14:03:00;4.20;;;1.55;;
77091;SDS011;66032;48.252;11.638;2023-03-08T14:05:30;3.03;;;1.60;;
77091;SDS011;66032;48.252;11.638;2023-03-08T14:08:01;4.82;;;1.48;;
77091;SDS011;66032;48.252;11.638;2023-03-08T14:10:36;3.58;;;1.67;;
77091;SDS011;66032;48.252;11.638;2023-03-08T14:13:14;4.55;;;1.90;;
77091;SDS011;66032;48.252;11.638;2023-03-08T14:15:48;4.70;;;1.67;;
77091;SDS011;66032;48.252;11.638;2023-03-08T14:18:19;4.03;;;1.70;;
77091;SDS011;66032;48.252;11.638;2023-03-08T14:21:04;5.30;;;1.90;;
77091;SDS011;66032;48.252;11.638;2023-03-08T14:24:17;3.20;;;1.50;;
77091;SDS011;66032;48.252;11.638;2023-03-08T14:26:52;2.95;;;1.35;;
77091;SDS011;66032;48.252;11.638;2023-03-08T14:29:22;3.35;;;1.40;;
77091;SDS011;66032;48.252;11.638;2023-03-08T14:31:52;6.93;;;1.80;;
77091;SDS011;66032;48.252;11.638;2023-03-08T14:39:48;4.85;;;1.50;;
77091;SDS011;66032;48.252;11.638;2023-03-08T14:42:25;3.45;;;1.60;;
77091;SDS011;66032;48.252;11.638;2023-03-08T14:45:04;3.80;;;1.90;;
77091;SDS011;66032;48.252;11.638;2023-03-08T14:47:51;3.80;;;1.90;;
77091;SDS011;66032;48.252;11.638;2023-03-08T14:50:22;11.90;;;2.40;;
77091;SDS011;66032;48.252;11.638;2023-03-08T14:52:56;4.95;;;2.00;;
77091;SDS011;66032;48.252;11.638;2023-03-08T14:55:27;9.23;;;2.80;;
77091;SDS011;66032;48.252;11.638;2023-03-08T14:57:57;8.45;;;2.38;;
77091;SDS011;66032;48.252;11.638;2023-03-08T15:00:27;5.95;;;1.90;;
77091;SDS011;66032;48.252;11.638;2023-03-08T15:02:55;5.82;;;2.33;;
77091;SDS011;66032;48.252;11.638;2023-03-08T15:05:24;7.85;;;2.03;;
77091;SDS011;66032;48.252;11.638;2023-03-08T15:07:55;5.72;;;1.70;;
77091;SDS011;66032;48.252;11.638;2023-03-08T15:10:32;3.72;;;1.90;;
77091;SDS011;66032;48.252;11.638;2023-03-08T15:13:03;4.07;;;1.60;;
77091;SDS011;66032;48.252;11.638;2023-03-08T15:15:32;2.88;;;1.60;;
77091;SDS011;66032;48.252;11.638;2023-03-08T15:17:59;5.82;;;3.10;;
77091;SDS011;66032;48.252;11.638;2023-03-08T15:20:26;5.85;;;2.97;;
77091;SDS011;66032;48.252;11.638;2023-03-08T15:22:55;6.07;;;2.97;;
77091;SDS011;66032;48.252;11.638;2023-03-08T15:25:27;8.70;;;4.20;;
77091;SDS011;66032;48.252;11.638;2023-03-08T15:27:56;4.78;;;2.10;;
77091;SDS011;66032;48.252;11.638;2023-03-08T15:30:24;5.55;;;2.95;;
77091;SDS011;66032;48.252;11.638;2023-03-08T15:32:53;4.05;;;2.28;;
77091;SDS011;66032;48.252;11.638;2023-03-08T15:35:24;3.25;;;1.80;;
77091;SDS011;66032;48.252;11.638;2023-03-08T15:37:55;5.45;;;2.58;;
77091;SDS011;66032;48.252;11.638;2023-03-08T15:40:24;4.07;;;1.70;;
77091;SDS011;66032;48.252;11.638;2023-03-08T15:42:53;3.17;;;1.70;;
77091;SDS011;66032;48.252;11.638;2023-03-08T15:45:21;3.38;;;1.77;;
77091;SDS011;66032;48.252;11.638;2023-03-08T15:48:01;4.70;;;2.08;;
77091;SDS011;66032;48.252;11.638;2023-03-08T15:50:30;2.85;;;1.38;;
77091;SDS011;66032;48.252;11.638;2023-03-08T15:52:59;4.70;;;1.73;;
77091;SDS011;66032;48.252;11.638;2023-03-08T15:55:27;2.85;;;1.67;;
77091;SDS011;66032;48.252;11.638;2023-03-08T15:57:55;3.00;;;1.50;;
77091;SDS011;66032;48.252;11.638;2023-03-08T16:00:24;3.85;;;2.20;;